createdAt,value
2019-05-20T00:02:33.256Z,23.3
2019-05-20T00:05:39.689Z,23.3
2019-05-20T00:08:46.775Z,23.2
2019-05-20T00:11:53.756Z,23.2
2019-05-20T00:15:00.026Z,23.2
2019-05-20T00:18:06.194Z,23.2
2019-05-20T00:21:12.515Z,23.2
2019-05-20T00:24:18.883Z,23.2
2019-05-20T00:27:25.166Z,23.2
2019-05-20T00:30:31.356Z,23.2
2019-05-20T00:33:37.566Z,23.2
2019-05-20T00:36:43.882Z,23.2
2019-05-20T00:39:50.299Z,23.1
2019-05-20T00:42:56.649Z,23.1
2019-05-20T00:46:02.941Z,23.2
2019-05-20T00:49:09.273Z,23.1
2019-05-20T00:52:15.526Z,23.1
2019-05-20T00:55:24.483Z,23.1
2019-05-20T00:58:30.756Z,23.1
2019-05-20T01:01:37.063Z,23.1
2019-05-20T01:04:43.299Z,23.1
2019-05-20T01:07:49.472Z,23.1
2019-05-20T01:10:55.710Z,23.1
2019-05-20T01:14:01.996Z,23.1
2019-05-20T01:17:08.248Z,23.1
2019-05-20T01:20:14.447Z,23
2019-05-20T01:23:20.786Z,23
2019-05-20T01:26:29.784Z,23
2019-05-20T01:29:35.971Z,23
2019-05-20T01:32:42.286Z,23
2019-05-20T01:35:48.495Z,23
2019-05-20T01:38:54.606Z,23
2019-05-20T01:42:00.768Z,23
2019-05-20T01:45:06.976Z,23
2019-05-20T01:48:13.155Z,23
2019-05-20T01:51:19.403Z,23
2019-05-20T01:54:25.584Z,22.9
2019-05-20T01:57:31.830Z,23
2019-05-20T02:00:37.959Z,22.9
2019-05-20T02:03:44.188Z,22.9
2019-05-20T02:06:53.095Z,22.9
2019-05-20T02:09:59.428Z,22.9
2019-05-20T02:13:05.583Z,22.9
2019-05-20T02:16:11.760Z,22.8
2019-05-20T02:19:17.955Z,22.9
2019-05-20T02:22:24.085Z,22.8
2019-05-20T02:25:30.352Z,22.9
2019-05-20T02:28:36.514Z,22.9
2019-05-20T02:31:42.795Z,22.9
2019-05-20T02:34:49.011Z,22.9
2019-05-20T02:37:55.486Z,22.8
2019-05-20T02:41:01.783Z,22.8
2019-05-20T02:44:07.909Z,22.8
2019-05-20T02:47:14.261Z,22.8
2019-05-20T02:50:20.469Z,22.8
2019-05-20T02:53:26.653Z,22.8
2019-05-20T02:56:33.112Z,22.9
2019-05-20T02:59:39.363Z,22.9
2019-05-20T03:02:45.594Z,23
2019-05-20T03:05:51.862Z,23
2019-05-20T03:08:57.975Z,23
2019-05-20T03:12:04.158Z,23
2019-05-20T03:15:10.368Z,23
2019-05-20T03:18:16.634Z,23
2019-05-20T03:21:23.031Z,23
2019-05-20T03:24:29.405Z,23.1
2019-05-20T03:27:35.495Z,23.1
2019-05-20T03:30:41.802Z,23.1
2019-05-20T03:33:48.118Z,23.1
2019-05-20T03:36:54.299Z,23.1
2019-05-20T03:40:00.495Z,23.1
2019-05-20T03:43:06.632Z,23.2
2019-05-20T03:46:16.130Z,23.2
2019-05-20T03:49:22.406Z,23.2
2019-05-20T03:52:28.624Z,23.2
2019-05-20T03:55:34.766Z,23.2
2019-05-20T03:58:41.041Z,23.2
2019-05-20T04:01:47.382Z,23.2
2019-05-20T04:05:01.726Z,23.3
2019-05-20T04:08:09.575Z,23.3
2019-05-20T04:11:15.808Z,23.3
2019-05-20T04:14:22.209Z,23.3
2019-05-20T04:17:28.427Z,23.4
2019-05-20T04:20:34.597Z,23.4
2019-05-20T04:23:40.936Z,23.5
2019-05-20T04:26:47.294Z,23.5
2019-05-20T04:29:53.505Z,23.6
2019-05-20T12:41:00.392Z,25.8
2019-05-20T12:44:12.845Z,25.8
2019-05-20T12:47:19.516Z,25.9
2019-05-20T12:50:25.922Z,25.9
2019-05-20T12:53:32.347Z,26
2019-05-20T12:56:38.792Z,26.1
2019-05-20T12:59:45.069Z,26.2
2019-05-20T13:02:51.260Z,26.2
2019-05-20T13:05:57.864Z,26.1
